Time;durP1;ratioP1;P1;durP2;ratioP2;P2;SDS_P1;SDS_P2;PMS_P1;PMS_P2;Temp;Humidity;BMP_temperature;BMP_pressure;BME280_temperature;BME280_humidity;BME280_pressure;Samples;Min_cycle;Max_cycle;Signal;HPM_P1;HPM_P2
2023/08/09 00:00:58;;;;;;;10.70;5.10;;;;;;;16.00;70.49;101342.06;107591;1252;109878;-60
2023/08/09 00:03:35;;;;;;;8.50;4.90;;;;;;;16.05;70.62;101351.05;107610;1251;108846;-60
2023/08/09 00:06:03;;;;;;;11.40;5.10;;;;;;;16.11;70.62;101356.28;107573;1252;97831;-60
2023/08/09 00:08:32;;;;;;;10.50;5.60;;;;;;;16.16;70.66;101353.77;107574;1252;97822;-59
2023/08/09 00:11:00;;;;;;;17.40;5.40;;;;;;;16.20;70.55;101352.07;107628;1251;111093;-59
2023/08/09 00:13:28;;;;;;;11.90;5.50;;;;;;;16.22;70.42;101355.25;107572;1251;109631;-59
2023/08/09 00:15:57;;;;;;;11.90;5.50;;;;;;;16.24;70.30;101358.33;107564;1255;107142;-60
2023/08/09 00:18:26;;;;;;;12.80;5.30;;;;;;;16.27;70.37;101361.11;107497;1251;97822;-61
2023/08/09 00:20:54;;;;;;;10.70;5.10;;;;;;;16.29;70.53;101361.98;107597;1251;97890;-59
2023/08/09 00:23:25;;;;;;;13.20;5.00;;;;;;;16.30;70.48;101365.17;107600;1251;111398;-59
2023/08/09 00:25:53;;;;;;;10.50;5.60;;;;;;;16.29;70.39;101364.73;107610;1251;109123;-60
2023/08/09 00:28:22;;;;;;;12.70;5.70;;;;;;;16.29;70.43;101363.64;107570;1251;108112;-60
2023/08/09 00:30:50;;;;;;;10.70;4.80;;;;;;;16.31;70.56;101360.98;107541;1251;97692;-60
2023/08/09 00:33:19;;;;;;;9.10;4.90;;;;;;;16.30;70.41;101359.06;107589;1251;98367;-59
2023/08/09 00:35:47;;;;;;;10.40;5.20;;;;;;;16.28;70.67;101356.43;107567;1254;111733;-61
2023/08/09 00:38:16;;;;;;;17.70;5.40;;;;;;;16.27;70.67;101359.18;107635;1254;109692;-60
2023/08/09 00:40:44;;;;;;;12.30;5.20;;;;;;;16.22;70.86;101356.70;107559;1251;107315;-60
2023/08/09 00:43:12;;;;;;;13.60;5.10;;;;;;;16.18;70.89;101357.90;107547;1250;97902;-60
2023/08/09 00:45:44;;;;;;;8.10;4.30;;;;;;;16.14;70.99;101357.27;107542;1254;97829;-61
2023/08/09 00:48:13;;;;;;;13.40;4.70;;;;;;;16.07;71.19;101360.06;107466;1257;112287;-60
2023/08/09 00:50:42;;;;;;;8.00;4.00;;;;;;;16.05;71.41;101362.48;107616;1251;109026;-60
2023/08/09 00:53:13;;;;;;;10.40;4.10;;;;;;;16.02;71.31;101359.91;107566;1254;107734;-59
2023/08/09 00:55:42;;;;;;;8.40;4.30;;;;;;;16.00;71.48;101358.95;107576;1251;97822;-60
2023/08/09 00:58:10;;;;;;;11.80;4.30;;;;;;;16.00;71.40;101360.08;107630;1251;97795;-60
2023/08/09 01:00:38;;;;;;;8.10;3.70;;;;;;;15.99;71.59;101355.73;107600;1251;110987;-60
2023/08/09 01:03:07;;;;;;;11.00;5.10;;;;;;;15.96;71.53;101356.67;107584;1254;109916;-60
2023/08/09 01:05:56;;;;;;;9.60;4.40;;;;;;;15.94;71.61;101355.56;107568;1253;108690;-61
2023/08/09 01:08:36;;;;;;;8.90;4.30;;;;;;;15.95;71.65;101353.56;107512;1253;97829;-60
2023/08/09 01:11:29;;;;;;;12.30;4.90;;;;;;;15.95;71.74;101352.98;107555;1254;98520;-60
2023/08/09 01:13:59;;;;;;;;;;;;;;;15.93;71.71;101355.38;107621;1252;111177;-60
2023/08/09 01:16:29;;;;;;;9.30;4.80;;;;;;;15.88;71.39;101353.67;107639;1254;110192;-59
2023/08/09 01:18:59;;;;;;;9.50;4.10;;;;;;;15.85;71.50;101349.83;107567;1252;106921;-60
2023/08/09 01:21:29;;;;;;;8.70;4.50;;;;;;;15.84;71.71;101359.33;107664;1254;97834;-59
2023/08/09 01:23:58;;;;;;;8.50;5.60;;;;;;;15.85;72.20;101363.81;107608;1254;97809;-61
2023/08/09 01:26:27;;;;;;;17.40;6.00;;;;;;;15.84;72.31;101363.86;107633;1251;111114;-60
2023/08/09 01:28:55;;;;;;;15.20;5.30;;;;;;;15.82;72.10;101367.12;107571;1251;110735;-59
2023/08/09 01:31:23;;;;;;;12.40;5.60;;;;;;;15.81;72.00;101370.10;107511;1252;106784;-60
2023/08/09 01:33:52;;;;;;;8.10;4.20;;;;;;;15.79;71.91;101358.75;107586;1254;97845;-61
2023/08/09 01:36:28;;;;;;;9.70;4.00;;;;;;;15.78;71.86;101356.65;107611;1253;97736;-59
2023/08/09 01:39:07;;;;;;;11.00;5.30;;;;;;;15.75;71.70;101345.80;107591;1254;111260;-60
2023/08/09 01:41:36;;;;;;;12.00;5.10;;;;;;;15.74;71.86;101346.73;107581;1254;109531;-61
2023/08/09 01:44:07;;;;;;;16.90;5.50;;;;;;;15.74;71.95;101354.56;107624;1254;106450;-60
2023/08/09 01:46:36;;;;;;;16.70;5.30;;;;;;;15.72;72.05;101356.89;107599;1253;97867;-60
2023/08/09 01:49:12;;;;;;;17.50;5.60;;;;;;;15.71;71.94;101357.05;107577;1253;97989;-61
2023/08/09 01:51:41;;;;;;;19.40;6.20;;;;;;;15.66;71.65;101357.48;107580;1251;112302;-61
2023/08/09 01:54:11;;;;;;;10.20;5.40;;;;;;;15.63;71.90;101361.02;107584;1251;110220;-59
2023/08/09 01:56:41;;;;;;;14.40;4.70;;;;;;;15.61;71.94;101364.39;107508;1251;108515;-59
2023/08/09 01:59:12;;;;;;;23.80;5.90;;;;;;;15.61;71.98;101368.70;107595;1251;97813;-59
2023/08/09 02:01:41;;;;;;;15.90;5.20;;;;;;;15.61;71.94;101368.89;107572;1250;98353;-60
2023/08/09 02:04:10;;;;;;;19.30;5.40;;;;;;;15.60;72.06;101372.90;107578;1251;111741;-61
2023/08/09 02:06:38;;;;;;;11.90;4.00;;;;;;;15.59;71.98;101374.61;107571;1254;109644;-60
2023/08/09 02:09:07;;;;;;;9.30;4.50;;;;;;;15.56;71.85;101374.77;107545;1254;108126;-61
2023/08/09 02:11:35;;;;;;;13.40;3.90;;;;;;;15.54;71.85;101376.11;107582;1251;97840;-60
2023/08/09 02:14:04;;;;;;;6.10;3.70;;;;;;;15.47;71.99;101372.94;107609;1251;98018;-61
2023/08/09 02:16:32;;;;;;;11.70;4.10;;;;;;;15.40;72.06;101376.52;107562;1253;112029;-59
2023/08/09 02:19:01;;;;;;;12.40;4.10;;;;;;;15.37;72.25;101380.14;107570;1254;109935;-61
2023/08/09 02:21:30;;;;;;;8.40;3.40;;;;;;;15.32;72.35;101373.00;107622;1251;108302;-60
2023/08/09 02:23:59;;;;;;;8.10;3.30;;;;;;;15.27;71.98;101376.35;107584;1251;97809;-59
2023/08/09 02:26:27;;;;;;;10.00;4.30;;;;;;;15.28;72.09;101379.20;107547;1253;98453;-60
2023/08/09 02:28:56;;;;;;;14.40;3.90;;;;;;;15.31;72.21;101386.48;107610;1254;110497;-59
2023/08/09 02:31:25;;;;;;;9.80;4.50;;;;;;;15.33;72.15;101383.89;107491;1253;109626;-59
2023/08/09 02:33:55;;;;;;;15.00;4.60;;;;;;;15.34;71.97;101381.77;107558;1253;107575;-60
2023/08/09 02:36:25;;;;;;;8.00;3.80;;;;;;;15.34;71.84;101383.29;107627;1254;97944;-60
2023/08/09 02:38:53;;;;;;;8.60;4.30;;;;;;;15.31;72.14;101383.03;107661;1254;97828;-60
2023/08/09 02:41:21;;;;;;;20.70;5.20;;;;;;;15.29;72.07;101381.39;107599;1251;112259;-60
2023/08/09 02:43:50;;;;;;;11.20;4.10;;;;;;;15.26;71.90;101383.35;107587;1251;109424;-60
2023/08/09 02:46:18;;;;;;;16.90;5.10;;;;;;;15.24;71.78;101390.06;107585;1253;106957;-58
2023/08/09 02:48:47;;;;;;;20.40;4.70;;;;;;;15.22;71.88;101391.20;107622;1254;98057;-59
2023/08/09 02:51:16;;;;;;;15.50;5.20;;;;;;;15.19;71.75;101392.69;107618;1251;97698;-60
2023/08/09 02:53:59;;;;;;;18.20;5.00;;;;;;;15.16;71.79;101391.88;107570;1255;111223;-58
2023/08/09 02:56:28;;;;;;;;;;;;;;;15.10;71.94;101396.62;107588;1254;109050;-59
2023/08/09 02:58:57;;;;;;;15.40;4.50;;;;;;;15.03;71.92;101401.84;107523;1257;108308;-59
2023/08/09 03:01:26;;;;;;;19.40;10.30;;;;;;;14.99;72.01;101402.28;107640;1254;97954;-59
2023/08/09 03:03:56;;;;;;;14.50;7.00;;;;;;;14.96;72.32;101403.21;107578;1253;97803;-59
2023/08/09 03:06:25;;;;;;;9.20;4.60;;;;;;;14.97;72.47;101408.81;107685;1254;111209;-57
2023/08/09 03:08:53;;;;;;;9.40;4.70;;;;;;;14.95;72.43;101411.87;107604;1253;109747;-60
2023/08/09 03:11:24;;;;;;;11.90;4.40;;;;;;;14.95;72.49;101411.69;107549;1253;107963;-59
2023/08/09 03:13:54;;;;;;;10.20;4.80;;;;;;;14.93;72.51;101412.95;107531;1254;97960;-58
2023/08/09 03:16:23;;;;;;;12.60;5.40;;;;;;;14.91;72.56;101412.20;107606;1251;98359;-59
2023/08/09 03:18:52;;;;;;;10.00;4.60;;;;;;;14.92;72.93;101412.51;107577;1254;111792;-59
2023/08/09 03:21:20;;;;;;;11.40;4.30;;;;;;;14.94;73.01;101414.11;107613;1251;108730;-62
2023/08/09 03:23:49;;;;;;;10.30;3.70;;;;;;;14.92;72.91;101418.80;107596;1251;107152;-62
2023/08/09 03:26:18;;;;;;;6.80;3.70;;;;;;;14.90;73.03;101427.36;107568;1254;97941;-59
2023/08/09 03:28:47;;;;;;;17.10;4.20;;;;;;;14.87;73.26;101431.23;107532;1253;97730;-60
2023/08/09 03:31:16;;;;;;;11.50;4.10;;;;;;;14.87;73.40;101433.34;107551;1254;112079;-59
2023/08/09 03:33:45;;;;;;;12.40;4.40;;;;;;;14.89;73.46;101430.70;107600;1254;109707;-59
2023/08/09 03:36:13;;;;;;;10.00;4.40;;;;;;;14.87;73.57;101435.41;107564;1255;108226;-60
2023/08/09 03:38:41;;;;;;;9.60;3.90;;;;;;;14.83;73.78;101435.60;107538;1253;97810;-57
2023/08/09 03:41:10;;;;;;;12.50;4.80;;;;;;;14.80;73.84;101434.77;107509;1252;98103;-58
2023/08/09 03:43:38;;;;;;;8.50;4.10;;;;;;;14.81;73.78;101438.33;107588;1254;111825;-59
2023/08/09 03:46:08;;;;;;;9.30;4.30;;;;;;;14.81;73.91;101436.30;107582;1255;109512;-59
2023/08/09 03:48:37;;;;;;;15.90;4.80;;;;;;;14.81;73.83;101438.44;107598;1251;108741;-58
2023/08/09 03:51:05;;;;;;;14.30;7.10;;;;;;;14.83;73.86;101439.74;107532;1251;97899;-58
2023/08/09 03:53:34;;;;;;;9.10;4.50;;;;;;;14.84;73.94;101437.96;107583;1251;98354;-59
2023/08/09 03:56:05;;;;;;;10.00;4.70;;;;;;;14.87;74.05;101439.66;107597;1256;111064;-58
2023/08/09 03:58:33;;;;;;;7.40;4.80;;;;;;;14.87;74.31;101438.99;107588;1251;109526;-59
2023/08/09 04:01:02;;;;;;;10.50;4.90;;;;;;;14.90;74.45;101444.51;107582;1251;109248;-59
2023/08/09 04:03:30;;;;;;;8.80;5.00;;;;;;;14.93;74.66;101442.95;107561;1254;97821;-59
2023/08/09 04:05:59;;;;;;;9.90;5.10;;;;;;;14.94;74.89;101443.04;107625;1251;99502;-59
2023/08/09 04:08:29;;;;;;;11.20;4.50;;;;;;;14.96;74.96;101443.92;107623;1251;111844;-60
2023/08/09 04:10:59;;;;;;;10.40;5.10;;;;;;;14.99;74.97;101443.42;107681;1251;108881;-58
2023/08/09 04:13:28;;;;;;;9.50;4.40;;;;;;;15.06;74.88;101445.86;107596;1251;107687;-58
2023/08/09 04:15:57;;;;;;;10.40;4.60;;;;;;;15.11;74.93;101445.90;107564;1254;97840;-59
2023/08/09 04:18:25;;;;;;;9.30;4.90;;;;;;;15.15;74.87;101445.83;107576;1254;97815;-58
2023/08/09 04:20:54;;;;;;;10.20;4.60;;;;;;;15.20;74.76;101447.23;107579;1254;111896;-60
2023/08/09 04:23:22;;;;;;;7.00;4.60;;;;;;;15.24;74.97;101446.76;107628;1254;108658;-61
2023/08/09 04:25:50;;;;;;;14.50;4.30;;;;;;;15.30;75.02;101443.98;107576;1254;108281;-59
2023/08/09 04:28:19;;;;;;;8.90;4.60;;;;;;;15.37;74.99;101446.05;107436;1254;97914;-59
2023/08/09 04:30:47;;;;;;;12.90;4.60;;;;;;;15.43;74.96;101445.08;107590;1254;99661;-59
2023/08/09 04:33:17;;;;;;;9.50;5.70;;;;;;;15.49;74.75;101446.70;107602;1252;111265;-57
2023/08/09 04:35:45;;;;;;;10.10;4.60;;;;;;;15.56;74.91;101444.54;107622;1254;109472;-59
2023/08/09 04:38:13;;;;;;;12.90;4.50;;;;;;;15.65;74.80;101445.48;107601;1251;107641;-60
2023/08/09 04:40:41;;;;;;;7.40;4.10;;;;;;;15.73;74.62;101448.11;107610;1256;97831;-61
2023/08/09 04:43:09;;;;;;;7.70;4.20;;;;;;;15.82;74.69;101451.09;107572;1251;97816;-60
2023/08/09 04:45:38;;;;;;;14.80;4.90;;;;;;;15.88;74.50;101453.52;107611;1251;111087;-61
2023/08/09 04:48:07;;;;;;;12.80;4.90;;;;;;;15.95;74.46;101451.55;107569;1251;109741;-59
2023/08/09 04:50:35;;;;;;;10.20;4.60;;;;;;;15.99;74.18;101446.13;107579;1255;108610;-57
2023/08/09 04:53:04;;;;;;;12.50;6.00;;;;;;;16.07;73.97;101450.91;107585;1254;97878;-59
2023/08/09 04:55:33;;;;;;;16.90;6.30;;;;;;;16.11;73.75;101453.22;107578;1252;98367;-58
2023/08/09 04:58:01;;;;;;;15.80;5.70;;;;;;;16.17;73.59;101457.21;107576;1251;111996;-58
2023/08/09 05:00:29;;;;;;;12.70;5.10;;;;;;;16.20;73.67;101457.39;107607;1251;109163;-57
2023/08/09 05:02:57;;;;;;;14.60;5.60;;;;;;;16.21;73.41;101463.41;107547;1254;108287;-59
2023/08/09 05:05:28;;;;;;;16.70;5.30;;;;;;;16.27;73.23;101465.94;107554;1253;97692;-58
2023/08/09 05:07:57;;;;;;;12.50;5.10;;;;;;;16.34;73.24;101466.99;107585;1254;98334;-60
2023/08/09 05:10:25;;;;;;;16.20;5.80;;;;;;;16.41;73.01;101469.05;107576;1250;112383;-58
2023/08/09 05:12:54;;;;;;;16.10;4.90;;;;;;;16.46;72.88;101463.59;107590;1251;109603;-56
2023/08/09 05:15:22;;;;;;;12.50;6.10;;;;;;;16.55;72.72;101465.11;107533;1251;108199;-59
2023/08/09 05:17:51;;;;;;;17.20;7.60;;;;;;;16.61;72.52;101462.41;107546;1251;97918;-58
2023/08/09 05:20:19;;;;;;;18.60;5.60;;;;;;;16.68;72.22;101460.52;107554;1251;97812;-60
2023/08/09 05:22:48;;;;;;;12.60;5.40;;;;;;;16.75;72.22;101463.40;107553;1251;111821;-59
2023/08/09 05:25:17;;;;;;;15.00;4.90;;;;;;;16.82;72.01;101463.91;107556;1251;108569;-58
2023/08/09 05:27:47;;;;;;;11.90;4.90;;;;;;;16.87;71.78;101461.34;107581;1256;107296;-58
2023/08/09 05:30:18;;;;;;;17.90;4.00;;;;;;;16.96;71.73;101463.73;107571;1254;97845;-59
2023/08/09 05:32:47;;;;;;;13.10;5.00;;;;;;;17.04;71.39;101466.60;107615;1251;99505;-60
2023/08/09 05:35:19;;;;;;;8.80;4.80;;;;;;;17.10;71.22;101464.82;107599;1251;111149;-58
2023/08/09 05:37:47;;;;;;;37.30;22.00;;;;;;;17.15;70.85;101468.34;107572;1251;109675;-60
2023/08/09 05:40:15;;;;;;;10.80;5.40;;;;;;;17.20;70.54;101470.89;107536;1251;108666;-59
2023/08/09 05:42:43;;;;;;;13.00;4.20;;;;;;;17.26;70.50;101476.05;107545;1256;97726;-60
2023/08/09 05:45:11;;;;;;;10.10;4.10;;;;;;;17.31;70.28;101478.52;107568;1251;97707;-60
2023/08/09 05:47:40;;;;;;;12.00;3.60;;;;;;;17.35;69.86;101475.06;107572;1251;110704;-59
2023/08/09 05:50:09;;;;;;;16.70;4.80;;;;;;;17.41;69.54;101480.22;107606;1251;108577;-60
2023/08/09 05:52:37;;;;;;;19.20;4.20;;;;;;;17.46;69.43;101479.70;107628;1251;107746;-60
2023/08/09 05:55:07;;;;;;;8.50;3.60;;;;;;;17.52;69.24;101481.42;107579;1251;97828;-58
2023/08/09 05:57:36;;;;;;;9.40;4.70;;;;;;;17.56;69.04;101479.93;107638;1251;97719;-58
2023/08/09 06:00:11;;;;;;;9.90;4.40;;;;;;;17.59;68.75;101482.50;107585;1251;112089;-60
2023/08/09 06:02:39;;;;;;;8.40;4.00;;;;;;;17.62;68.51;101481.41;107652;1251;109436;-59
2023/08/09 06:05:14;;;;;;;19.10;5.10;;;;;;;17.65;68.50;101478.54;107547;1251;108573;-59
2023/08/09 06:07:42;;;;;;;;;;;;;;;17.66;68.18;101478.27;107615;1251;97914;-59
2023/08/09 06:10:10;;;;;;;17.10;5.60;;;;;;;17.71;67.93;101485.41;107573;1251;97702;-58
2023/08/09 06:12:39;;;;;;;13.50;4.20;;;;;;;17.75;67.79;101485.84;107563;1251;112251;-59
2023/08/09 06:15:08;;;;;;;9.90;4.10;;;;;;;17.79;67.64;101487.41;107537;1257;110074;-59
2023/08/09 06:17:36;;;;;;;9.50;4.00;;;;;;;17.84;67.50;101491.27;107604;1254;107761;-60
2023/08/09 06:20:05;;;;;;;7.10;3.50;;;;;;;17.88;67.22;101494.98;107520;1254;97886;-60
2023/08/09 06:22:34;;;;;;;10.80;3.30;;;;;;;17.93;67.05;101492.23;107601;1251;97832;-60
2023/08/09 06:25:02;;;;;;;8.80;3.70;;;;;;;17.98;66.93;101493.91;107585;1251;112638;-59
2023/08/09 06:27:31;;;;;;;12.40;4.40;;;;;;;18.04;66.85;101494.54;107615;1254;109745;-59
2023/08/09 06:29:59;;;;;;;7.30;3.80;;;;;;;18.10;66.46;101493.34;107555;1251;108008;-60
2023/08/09 06:32:28;;;;;;;9.00;3.30;;;;;;;18.16;66.39;101488.70;107587;1251;98337;-59
2023/08/09 06:34:56;;;;;;;7.40;4.30;;;;;;;18.23;66.38;101490.74;107578;1251;98391;-59
2023/08/09 06:37:25;;;;;;;7.60;4.00;;;;;;;18.29;65.90;101490.41;107598;1251;111722;-59
2023/08/09 06:39:53;;;;;;;14.00;5.30;;;;;;;18.36;65.58;101489.41;107569;1251;109797;-60
2023/08/09 06:42:21;;;;;;;23.70;15.20;;;;;;;18.43;65.57;101486.70;107523;1251;107157;-61
2023/08/09 06:44:50;;;;;;;11.30;4.60;;;;;;;18.52;65.29;101487.91;107584;1251;97844;-58
2023/08/09 06:47:18;;;;;;;8.00;2.90;;;;;;;18.59;65.42;101487.23;107595;1251;97850;-60
2023/08/09 06:49:47;;;;;;;13.20;3.60;;;;;;;18.68;65.54;101491.34;107592;1251;112578;-60
2023/08/09 06:52:16;;;;;;;9.10;3.50;;;;;;;18.76;65.29;101489.55;107565;1251;110141;-60
2023/08/09 06:54:44;;;;;;;11.10;3.30;;;;;;;18.83;65.02;101482.95;107595;1251;108679;-59
2023/08/09 06:57:16;;;;;;;11.60;2.90;;;;;;;18.93;63.87;101486.61;107579;1254;98434;-59
2023/08/09 06:59:45;;;;;;;10.50;2.90;;;;;;;19.01;62.77;101486.98;107583;1251;98382;-59
2023/08/09 07:02:14;;;;;;;9.80;2.90;;;;;;;19.11;61.84;101484.27;107612;1254;111802;-59
2023/08/09 07:04:43;;;;;;;9.30;3.20;;;;;;;19.19;61.71;101482.77;107677;1251;110498;-60
2023/08/09 07:07:11;;;;;;;12.70;2.90;;;;;;;19.28;61.59;101481.95;107566;1251;107423;-57
2023/08/09 07:09:41;;;;;;;7.50;3.40;;;;;;;19.35;61.38;101477.25;107567;1254;97762;-58
2023/08/09 07:12:10;;;;;;;11.50;2.70;;;;;;;19.41;61.31;101483.19;107593;1251;97896;-60
2023/08/09 07:14:41;;;;;;;6.40;2.70;;;;;;;19.46;60.44;101479.19;107583;1251;111850;-60
2023/08/09 07:17:10;;;;;;;9.70;2.40;;;;;;;19.51;59.18;101481.63;107575;1251;109819;-59
2023/08/09 07:19:38;;;;;;;5.10;2.50;;;;;;;19.58;59.37;101477.78;107560;1254;106700;-61
2023/08/09 07:22:06;;;;;;;8.20;2.20;;;;;;;19.65;59.54;101480.20;107582;1251;98157;-60
2023/08/09 07:24:35;;;;;;;8.20;2.60;;;;;;;19.72;59.41;101483.37;107563;1251;98452;-62
2023/08/09 07:27:04;;;;;;;8.80;2.90;;;;;;;19.78;58.55;101485.98;107550;1251;111592;-59
2023/08/09 07:29:32;;;;;;;9.90;2.10;;;;;;;19.84;57.70;101485.10;107622;1251;108384;-60
2023/08/09 07:32:01;;;;;;;10.70;2.70;;;;;;;19.92;58.33;101480.69;107561;1254;108221;-61
2023/08/09 07:34:30;;;;;;;7.10;2.40;;;;;;;20.01;58.26;101479.70;107653;1251;97813;-59
2023/08/09 07:36:58;;;;;;;3.30;2.00;;;;;;;20.09;57.51;101479.52;107593;1251;98517;-59
2023/08/09 07:39:27;;;;;;;7.10;2.20;;;;;;;20.16;57.33;101475.35;107578;1253;112186;-60
2023/08/09 07:41:55;;;;;;;13.20;2.50;;;;;;;20.24;56.42;101478.68;107551;1254;109793;-60
2023/08/09 07:44:24;;;;;;;10.90;2.60;;;;;;;20.29;56.12;101475.60;107556;1255;108124;-59
2023/08/09 07:46:52;;;;;;;7.10;2.10;;;;;;;20.38;55.43;101478.25;107548;1251;97917;-60
2023/08/09 07:49:21;;;;;;;5.20;2.00;;;;;;;20.45;54.83;101477.58;107584;1251;97778;-61
2023/08/09 07:51:49;;;;;;;8.00;2.50;;;;;;;20.51;55.57;101475.62;107619;1251;111589;-59
2023/08/09 07:54:17;;;;;;;4.90;2.30;;;;;;;20.59;55.59;101470.59;107591;1255;109457;-58
2023/08/09 07:56:46;;;;;;;7.10;1.80;;;;;;;20.69;54.74;101471.58;107560;1251;110117;-60
2023/08/09 07:59:14;;;;;;;8.30;1.50;;;;;;;20.77;52.00;101469.99;107609;1254;97826;-61
2023/08/09 08:01:42;;;;;;;11.00;2.10;;;;;;;20.85;52.47;101467.85;107570;1251;98458;-60
2023/08/09 08:04:11;;;;;;;5.20;1.70;;;;;;;20.98;53.21;101471.23;107567;1251;111369;-60
2023/08/09 08:06:39;;;;;;;8.70;1.70;;;;;;;21.13;51.23;101466.61;107545;1255;110050;-60
2023/08/09 08:09:12;;;;;;;5.30;1.60;;;;;;;21.28;51.19;101467.93;107581;1256;107260;-59
2023/08/09 08:11:41;;;;;;;5.60;1.60;;;;;;;21.45;51.85;101468.36;107605;1254;97805;-59
2023/08/09 08:14:09;;;;;;;7.00;2.00;;;;;;;21.61;51.86;101462.30;107545;1251;97698;-61
2023/08/09 08:16:38;;;;;;;5.20;2.50;;;;;;;21.77;52.15;101464.63;107612;1257;112065;-61
2023/08/09 08:19:09;;;;;;;5.60;1.50;;;;;;;21.95;51.71;101463.23;107511;1251;110524;-61
2023/08/09 08:21:37;;;;;;;4.80;3.00;;;;;;;22.13;50.56;101456.91;107520;1254;108661;-60
2023/08/09 08:24:08;;;;;;;4.20;2.50;;;;;;;22.32;51.04;101453.16;107600;1250;97810;-60
2023/08/09 08:26:36;;;;;;;8.00;1.60;;;;;;;22.51;50.43;101453.30;107612;1252;97808;-58
2023/08/09 08:29:04;;;;;;;8.00;3.50;;;;;;;22.69;49.98;101450.11;107516;1254;111994;-61
2023/08/09 08:31:33;;;;;;;6.50;2.10;;;;;;;22.84;48.62;101448.30;107527;1253;109991;-59
2023/08/09 08:34:03;;;;;;;2.90;1.50;;;;;;;23.02;48.28;101448.31;107585;1251;108673;-60
2023/08/09 08:36:32;;;;;;;9.10;1.90;;;;;;;23.19;47.49;101452.64;107544;1257;97786;-59
2023/08/09 08:39:00;;;;;;;2.30;1.40;;;;;;;23.35;47.36;101453.52;107590;1251;97823;-60
2023/08/09 08:41:28;;;;;;;8.60;2.00;;;;;;;23.52;47.73;101451.06;107608;1251;111954;-60
2023/08/09 08:43:57;;;;;;;4.30;1.50;;;;;;;23.72;46.69;101450.78;107514;1256;109354;-59
2023/08/09 08:46:26;;;;;;;5.00;1.60;;;;;;;23.94;44.18;101448.00;107532;1257;107574;-60
2023/08/09 08:49:00;;;;;;;3.20;1.60;;;;;;;24.10;43.73;101450.80;107581;1251;97914;-59
2023/08/09 08:51:30;;;;;;;2.30;1.60;;;;;;;24.21;43.98;101450.42;107606;1253;97796;-59
2023/08/09 08:53:59;;;;;;;4.20;1.30;;;;;;;24.36;45.01;101450.77;107571;1253;111154;-59
2023/08/09 08:56:29;;;;;;;4.00;1.90;;;;;;;24.55;44.25;101453.76;107630;1253;109456;-59
2023/08/09 08:58:59;;;;;;;6.60;1.90;;;;;;;24.70;44.00;101454.98;107577;1250;107525;-59
2023/08/09 09:01:28;;;;;;;9.30;2.50;;;;;;;24.86;43.63;101452.73;107609;1251;97828;-59
2023/08/09 09:03:56;;;;;;;3.80;1.70;;;;;;;24.92;43.73;101447.37;107554;1255;97685;-59
2023/08/09 09:06:25;;;;;;;7.50;1.50;;;;;;;24.98;43.27;101442.28;107510;1251;113216;-59
2023/08/09 09:08:59;;;;;;;6.60;2.10;;;;;;;25.13;43.04;101437.56;107682;1255;109674;-59
2023/08/09 09:11:27;;;;;;;15.70;2.00;;;;;;;25.35;43.11;101435.37;107508;1254;107148;-60
2023/08/09 09:13:56;;;;;;;5.60;1.90;;;;;;;25.61;41.78;101430.30;107555;1251;97920;-60
2023/08/09 09:16:24;;;;;;;4.80;2.00;;;;;;;25.80;41.64;101432.30;107626;1256;97693;-60
2023/08/09 09:18:53;;;;;;;11.80;4.50;;;;;;;26.02;40.90;101428.45;107536;1254;110754;-60
2023/08/09 09:21:30;;;;;;;11.30;2.40;;;;;;;26.23;41.35;101424.38;107653;1255;109801;-62
2023/08/09 09:24:09;;;;;;;8.00;2.00;;;;;;;26.39;39.33;101426.58;107523;1251;108137;-58
2023/08/09 09:26:38;;;;;;;3.80;1.30;;;;;;;26.41;38.43;101421.00;107510;1256;98251;-59
2023/08/09 09:29:11;;;;;;;4.10;1.90;;;;;;;26.65;38.40;101418.77;107549;1251;98363;-58
2023/08/09 09:31:40;;;;;;;;;;;;;;;27.08;38.78;101416.61;107494;1254;111512;-59
2023/08/09 09:34:09;;;;;;;7.50;2.50;;;;;;;27.50;36.59;101418.86;107618;1256;108822;-60
2023/08/09 09:36:39;;;;;;;8.10;1.60;;;;;;;27.83;36.73;101412.84;107585;1256;107956;-61
2023/08/09 09:39:10;;;;;;;5.80;1.40;;;;;;;28.31;35.67;101412.02;107512;1251;97876;-61
2023/08/09 09:41:45;;;;;;;5.10;1.70;;;;;;;28.86;35.16;101406.91;107489;1254;97904;-59
2023/08/09 09:44:20;;;;;;;1.90;1.20;;;;;;;29.46;35.04;101401.83;107485;1256;111362;-60
2023/08/09 09:46:57;;;;;;;3.90;1.40;;;;;;;30.04;32.17;101397.65;107068;1254;632088;-60
2023/08/09 09:49:26;;;;;;;5.70;2.60;;;;;;;30.44;31.53;101392.57;107681;1251;107422;-61
2023/08/09 09:51:56;;;;;;;9.70;1.30;;;;;;;30.59;29.41;101390.98;107483;1251;97707;-59
2023/08/09 09:54:25;;;;;;;2.60;1.00;;;;;;;30.60;29.83;101392.01;107607;1254;97817;-59
2023/08/09 09:56:53;;;;;;;5.50;1.50;;;;;;;30.60;31.04;101387.67;107565;1254;111723;-59
2023/08/09 09:59:21;;;;;;;8.00;4.00;;;;;;;30.07;29.74;101392.11;107571;1256;109823;-59
2023/08/09 10:01:51;;;;;;;4.60;1.50;;;;;;;29.73;31.21;101383.86;107548;1251;107688;-59
2023/08/09 10:04:20;;;;;;;4.50;1.20;;;;;;;29.84;31.12;101381.63;107572;1251;97915;-60
2023/08/09 10:06:48;;;;;;;1.60;1.00;;;;;;;30.46;30.26;101378.29;107511;1255;97691;-60
2023/08/09 10:09:19;;;;;;;3.10;1.10;;;;;;;31.05;29.09;101374.48;107572;1250;112826;-59
2023/08/09 10:11:50;;;;;;;3.70;1.10;;;;;;;31.76;28.72;101373.17;107490;1254;108976;-61
2023/08/09 10:14:20;;;;;;;6.30;1.80;;;;;;;32.55;26.59;101370.67;107606;1256;106779;-59
2023/08/09 10:16:50;;;;;;;6.20;1.00;;;;;;;33.19;27.09;101364.86;107516;1251;97934;-60
2023/08/09 10:19:24;;;;;;;3.10;1.00;;;;;;;33.98;26.81;101361.34;107570;1251;97690;-60
2023/08/09 10:21:54;;;;;;;3.20;1.00;;;;;;;34.67;25.68;101354.70;107578;1251;111235;-59
2023/08/09 10:24:29;;;;;;;6.80;1.20;;;;;;;35.21;23.65;101354.23;107587;1251;110233;-58
2023/08/09 10:27:01;;;;;;;2.80;1.00;;;;;;;34.67;24.44;101345.64;107586;1254;108112;-61
2023/08/09 10:29:30;;;;;;;4.20;0.80;;;;;;;34.31;24.84;101343.45;107568;1251;97929;-59
2023/08/09 10:32:04;;;;;;;4.20;1.10;;;;;;;33.95;24.55;101339.82;107555;1251;97925;-59
2023/08/09 10:34:42;;;;;;;1.50;1.00;;;;;;;34.33;23.72;101332.77;107620;1256;111373;-59
2023/08/09 10:37:23;;;;;;;4.40;1.20;;;;;;;34.98;24.04;101326.67;107599;1250;110667;-60
2023/08/09 10:40:12;;;;;;;4.30;1.00;;;;;;;35.62;22.52;101326.14;107630;1254;107904;-59
2023/08/09 10:43:24;;;;;;;2.40;1.20;;;;;;;35.82;21.97;101327.05;107571;1251;97832;-61
2023/08/09 10:46:18;;;;;;;6.70;2.80;;;;;;;33.97;21.96;101327.94;107463;1251;98379;-62
2023/08/09 10:48:51;;;;;;;3.50;1.00;;;;;;;32.86;23.82;101323.56;107603;1254;111294;-59
2023/08/09 10:51:21;;;;;;;2.70;1.90;;;;;;;32.98;24.04;101320.84;107643;1253;108466;-61
2023/08/09 10:53:56;;;;;;;3.80;2.70;;;;;;;33.05;23.73;101320.30;107574;1254;107392;-61
2023/08/09 10:56:27;;;;;;;3.80;0.80;;;;;;;33.44;23.74;101309.44;107589;1254;97868;-60
2023/08/09 10:59:04;;;;;;;1.80;0.80;;;;;;;33.79;24.14;101312.20;107584;1251;98345;-60
2023/08/09 11:01:34;;;;;;;4.90;0.90;;;;;;;33.78;24.34;101309.39;107651;1256;111743;-63
2023/08/09 11:04:08;;;;;;;1.50;0.80;;;;;;;34.59;23.22;101304.82;107602;1254;108223;-61
2023/08/09 11:06:39;;;;;;;6.60;2.00;;;;;;;35.35;22.56;101298.81;107588;1251;107363;-61
2023/08/09 11:09:16;;;;;;;5.90;1.60;;;;;;;35.92;22.10;101303.49;107542;1255;97736;-61
2023/08/09 11:11:46;;;;;;;1.70;0.90;;;;;;;36.56;21.98;101298.70;107601;1256;98524;-62
2023/08/09 11:14:17;;;;;;;3.30;1.10;;;;;;;37.16;21.35;101294.98;107598;1254;111788;-60
2023/08/09 11:16:47;;;;;;;;;;;;;;;37.57;20.63;101288.90;107615;1254;109590;-60
2023/08/09 11:19:21;;;;;;;7.80;1.10;;;;;;;37.96;20.92;101290.45;107649;1251;107921;-60
2023/08/09 11:22:03;;;;;;;7.60;1.40;;;;;;;37.68;21.24;101281.52;107610;1251;97882;-60